^^

Metar (rayon 200 km actualisée toutes les 30 minutes)






LFBU - Brie/Champniers, France
Distance de la station: SSE 07km
Mise à jour: 01/10/2014 19:00
Pas à jour
partiellement nuageux
partiellement nuageux
 Wind from NE
Vent: NE 7 km/h
Température: 22°C
Point de Rosée: 12°C
Humidité: 53%
Baromètre: 1026 hPa
Nuages: partiellement nuageux
Visibilité: 10 km
2014/10/01 17:00 LFBU 011700Z AUTO 05004KT 9999 NSC 22/12 Q1026
LFBG - Cognac/Chateaubernard, France
Distance de la station: OSO 35km
Mise à jour: 02/10/2014 04:00
partiellement nuageux
partiellement nuageux
 Wind from N
Vent: N 4 km/h
Température: 15°C
Point de Rosée: 12°C
Humidité: 82%
Baromètre: 1027 hPa
Nuages: partiellement nuageux
Visibilité: 10 km
2014/10/02 02:00 LFBG 020200Z AUTO 36002KT 9999 NSC 15/12 Q1027
 
LFBL - Limoges/Bellegarde, France
Distance de la station: E 82km
Mise à jour: 02/10/2014 04:00
partiellement nuageux
partiellement nuageux
 Wind from NE
Vent: NE 9 km/h
Température: 15°C
Point de Rosée: 11°C
Humidité: 77%
Baromètre: 1027 hPa
Nuages: partiellement nuageux
Visibilité: 10 km
2014/10/02 02:00 LFBL 020200Z AUTO 04005KT 9999 NSC 15/11 Q1027
LFBI - Poitiers/France
Distance de la station: N 93km
Mise à jour: 02/10/2014 04:00
partiellement nuageux
partiellement nuageux
 Wind from NNO
Vent: NNO 2 km/h
Température: 12°C
Point de Rosée: 11°C
Humidité: 94%
Baromètre: 1027 hPa
Nuages: partiellement nuageux
Visibilité: 10 km
2014/10/02 02:00 LFBI 020200Z AUTO 33001KT 9999 NSC 12/11 Q1027
 
LFBH - La Rochelle/France
Distance de la station: ONO 106km
Mise à jour: 02/10/2014 04:00
Quelques Nuages
Quelques Nuages
 Wind from ENE
Vent: ENE 11 km/h
Température: 15°C
Point de Rosée: 14°C
Humidité: 94%
Baromètre: 1027 hPa
Nuages: Quelques Nuages
Visibilité: 10 km
Nuages details: Quelques Nuages 1311 m
2014/10/02 02:00 LFBH 020200Z AUTO 06006KT 9999 FEW043 15/14 Q1027
LFBE - Bergerac/France
Distance de la station: SSE 107km
Mise à jour: 02/10/2014 04:00
Broulliard, partiellement nuageux
Broulliard, partiellement nuageux
 Wind from calm
Vent: Vent calme
Température: 11°C
Point de Rosée: 11°C
Humidité: 100%
Baromètre: 1026 hPa
Récapitulatifs: Broulliard
Nuages: partiellement nuageux
Visibilité: 4 km
2014/10/02 02:00 LFBE 020200Z AUTO 00000KT 4400 BR NSC 11/11 Q1026
 
LFBD - Bordeaux/France
Distance de la station: SSO 121km
Mise à jour: 02/10/2014 04:00

 Wind from N
Vent: N 7 km/h
Visibilité: 10 km
2014/10/02 02:00 LFBD 020200Z AUTO 01004KT 9999 0150 R23/P2000 R05/0600N R29/P2000 BCFG NSC 15/14 Q1026
LFRI - La Roche-sur-Yon/France
Distance de la station: NO 156km
Mise à jour: 02/10/2014 04:00
Brouillard ou brume
Brouillard ou brume
 Wind from N
Vent: N 6 km/h
Température: 13°C
Point de Rosée: 12°C
Humidité: 94%
Baromètre: 1028 hPa
Récapitulatifs: Brouillard ou brume
Visibilité: 0 km
2014/10/02 02:00 LFRI 020200Z AUTO 01003KT 0100 R28/0700U FG VV/// 13/12 Q1028
 
LFBC - Cazaux/France
Distance de la station: SO 167km
Mise à jour: 02/10/2014 04:00
Brouillard ou brume, partiellement nuageux
Brouillard ou brume, partiellement nuageux
 Wind from N
Vent: N 6 km/h
Température: 14°C
Point de Rosée: 14°C
Humidité: 100%
Baromètre: 1026 hPa
Récapitulatifs: Brouillard ou brume
Nuages: partiellement nuageux
Visibilité: 0 km
2014/10/02 02:00 LFBC 020200Z AUTO 36003KT 0200 R24/1400U FG NSC 14/14 Q1026
LFLX - Chateauroux/France
Distance de la station: NE 174km
Mise à jour: 02/10/2014 04:00
partiellement nuageux
partiellement nuageux
 Wind from SO
Vent: SO 4 km/h
Température: 11°C
Point de Rosée: 10°C
Humidité: 94%
Baromètre: 1027 hPa
Nuages: partiellement nuageux
Visibilité: 10 km
2014/10/02 02:00 LFLX 020200Z AUTO 22002KT 9999 NSC 11/10 Q1027
 
LFBA - Agen/France
Distance de la station: SSE 179km
Mise à jour: 02/10/2014 04:00
partiellement nuageux
partiellement nuageux
 Wind from ONO
Vent: ONO 2 km/h
Température: 12°C
Point de Rosée: 11°C
Humidité: 94%
Baromètre: 1026 hPa
Nuages: partiellement nuageux
Visibilité: 10 km
2014/10/02 02:00 LFBA 020200Z AUTO 29001KT 9999 NSC 12/11 Q1026